sensor_id;sensor_type;location;lat;lon;timestamp;P1;durP1;ratioP1;P2;durP2;ratioP2
48993;SDS011;34804;49.214;12.276;2023-12-20T00:02:13;8.93;;;5.72;;
48993;SDS011;34804;49.214;12.276;2023-12-20T00:04:39;9.38;;;5.22;;
48993;SDS011;34804;49.214;12.276;2023-12-20T00:07:06;11.43;;;5.68;;
48993;SDS011;34804;49.214;12.276;2023-12-20T00:09:33;11.45;;;5.70;;
48993;SDS011;34804;49.214;12.276;2023-12-20T00:12:00;8.85;;;4.88;;
48993;SDS011;34804;49.214;12.276;2023-12-20T00:14:27;7.75;;;4.60;;
48993;SDS011;34804;49.214;12.276;2023-12-20T00:16:54;8.57;;;4.63;;
48993;SDS011;34804;49.214;12.276;2023-12-20T00:19:21;8.75;;;5.07;;
48993;SDS011;34804;49.214;12.276;2023-12-20T00:21:48;11.60;;;5.07;;
48993;SDS011;34804;49.214;12.276;2023-12-20T00:24:15;9.18;;;5.30;;
48993;SDS011;34804;49.214;12.276;2023-12-20T00:26:42;9.07;;;4.88;;
48993;SDS011;34804;49.214;12.276;2023-12-20T00:29:09;7.95;;;4.30;;
48993;SDS011;34804;49.214;12.276;2023-12-20T00:31:36;7.65;;;4.57;;
48993;SDS011;34804;49.214;12.276;2023-12-20T00:34:03;10.18;;;5.00;;
48993;SDS011;34804;49.214;12.276;2023-12-20T00:36:30;8.82;;;4.93;;
48993;SDS011;34804;49.214;12.276;2023-12-20T00:38:57;8.90;;;5.00;;
48993;SDS011;34804;49.214;12.276;2023-12-20T00:41:23;8.00;;;5.10;;
48993;SDS011;34804;49.214;12.276;2023-12-20T00:43:50;8.18;;;5.13;;
48993;SDS011;34804;49.214;12.276;2023-12-20T00:46:17;10.90;;;5.03;;
48993;SDS011;34804;49.214;12.276;2023-12-20T00:48:44;8.40;;;4.93;;
48993;SDS011;34804;49.214;12.276;2023-12-20T00:51:12;7.25;;;4.13;;
48993;SDS011;34804;49.214;12.276;2023-12-20T00:53:38;9.93;;;5.05;;
48993;SDS011;34804;49.214;12.276;2023-12-20T00:56:05;12.27;;;5.40;;
48993;SDS011;34804;49.214;12.276;2023-12-20T00:58:32;8.38;;;4.50;;
48993;SDS011;34804;49.214;12.276;2023-12-20T01:00:59;10.82;;;5.35;;
48993;SDS011;34804;49.214;12.276;2023-12-20T01:03:26;7.57;;;4.55;;
48993;SDS011;34804;49.214;12.276;2023-12-20T01:05:53;8.77;;;4.70;;
48993;SDS011;34804;49.214;12.276;2023-12-20T01:08:20;10.45;;;4.50;;
48993;SDS011;34804;49.214;12.276;2023-12-20T01:10:47;7.53;;;4.43;;
48993;SDS011;34804;49.214;12.276;2023-12-20T01:13:14;9.07;;;4.70;;
48993;SDS011;34804;49.214;12.276;2023-12-20T01:15:41;7.60;;;4.65;;
48993;SDS011;34804;49.214;12.276;2023-12-20T01:18:08;9.38;;;4.88;;
48993;SDS011;34804;49.214;12.276;2023-12-20T01:20:35;8.25;;;4.43;;
48993;SDS011;34804;49.214;12.276;2023-12-20T01:23:02;9.00;;;4.68;;
48993;SDS011;34804;49.214;12.276;2023-12-20T01:25:29;8.07;;;4.40;;
48993;SDS011;34804;49.214;12.276;2023-12-20T01:27:56;8.85;;;4.55;;
48993;SDS011;34804;49.214;12.276;2023-12-20T01:30:23;9.07;;;4.63;;
48993;SDS011;34804;49.214;12.276;2023-12-20T01:32:50;7.63;;;4.32;;
48993;SDS011;34804;49.214;12.276;2023-12-20T01:35:17;9.15;;;4.85;;
48993;SDS011;34804;49.214;12.276;2023-12-20T01:37:45;9.50;;;4.15;;
48993;SDS011;34804;49.214;12.276;2023-12-20T01:40:12;8.15;;;4.25;;
48993;SDS011;34804;49.214;12.276;2023-12-20T01:42:39;8.52;;;4.90;;
48993;SDS011;34804;49.214;12.276;2023-12-20T01:45:06;7.57;;;4.40;;
48993;SDS011;34804;49.214;12.276;2023-12-20T01:47:33;7.93;;;4.47;;
48993;SDS011;34804;49.214;12.276;2023-12-20T01:50:02;10.23;;;4.60;;
48993;SDS011;34804;49.214;12.276;2023-12-20T01:52:30;8.27;;;4.75;;
48993;SDS011;34804;49.214;12.276;2023-12-20T01:54:59;8.48;;;4.90;;
48993;SDS011;34804;49.214;12.276;2023-12-20T01:57:30;7.57;;;4.45;;
48993;SDS011;34804;49.214;12.276;2023-12-20T01:59:57;8.27;;;4.45;;
48993;SDS011;34804;49.214;12.276;2023-12-20T02:02:25;10.18;;;5.80;;
48993;SDS011;34804;49.214;12.276;2023-12-20T02:04:54;13.00;;;5.82;;
48993;SDS011;34804;49.214;12.276;2023-12-20T02:07:22;9.98;;;5.55;;
48993;SDS011;34804;49.214;12.276;2023-12-20T02:09:49;10.02;;;5.85;;
48993;SDS011;34804;49.214;12.276;2023-12-20T02:12:16;11.40;;;5.97;;
48993;SDS011;34804;49.214;12.276;2023-12-20T02:14:44;11.35;;;5.95;;
48993;SDS011;34804;49.214;12.276;2023-12-20T02:17:11;9.80;;;5.55;;
48993;SDS011;34804;49.214;12.276;2023-12-20T02:19:38;10.55;;;6.05;;
48993;SDS011;34804;49.214;12.276;2023-12-20T02:22:06;11.05;;;5.93;;
48993;SDS011;34804;49.214;12.276;2023-12-20T02:24:33;9.88;;;5.88;;
48993;SDS011;34804;49.214;12.276;2023-12-20T02:27:00;9.73;;;6.10;;
48993;SDS011;34804;49.214;12.276;2023-12-20T02:29:27;11.95;;;6.25;;
48993;SDS011;34804;49.214;12.276;2023-12-20T02:31:54;10.13;;;6.53;;
48993;SDS011;34804;49.214;12.276;2023-12-20T02:34:21;13.25;;;7.00;;
48993;SDS011;34804;49.214;12.276;2023-12-20T02:36:47;11.68;;;6.78;;
48993;SDS011;34804;49.214;12.276;2023-12-20T02:39:14;13.10;;;6.72;;
48993;SDS011;34804;49.214;12.276;2023-12-20T02:41:41;11.85;;;6.85;;
48993;SDS011;34804;49.214;12.276;2023-12-20T02:44:08;11.98;;;7.40;;
48993;SDS011;34804;49.214;12.276;2023-12-20T02:46:35;14.32;;;8.60;;
48993;SDS011;34804;49.214;12.276;2023-12-20T02:49:02;15.00;;;8.57;;
48993;SDS011;34804;49.214;12.276;2023-12-20T02:51:29;12.38;;;7.72;;
48993;SDS011;34804;49.214;12.276;2023-12-20T02:53:56;13.43;;;8.45;;
48993;SDS011;34804;49.214;12.276;2023-12-20T02:56:23;14.10;;;8.73;;
48993;SDS011;34804;49.214;12.276;2023-12-20T02:58:49;14.90;;;9.07;;
48993;SDS011;34804;49.214;12.276;2023-12-20T03:01:16;14.50;;;8.20;;
48993;SDS011;34804;49.214;12.276;2023-12-20T03:03:43;12.45;;;7.93;;
48993;SDS011;34804;49.214;12.276;2023-12-20T03:06:10;15.93;;;8.63;;
48993;SDS011;34804;49.214;12.276;2023-12-20T03:08:37;14.70;;;8.80;;
48993;SDS011;34804;49.214;12.276;2023-12-20T03:11:04;14.93;;;8.63;;
48993;SDS011;34804;49.214;12.276;2023-12-20T03:13:31;15.73;;;9.38;;
48993;SDS011;34804;49.214;12.276;2023-12-20T03:15:58;15.55;;;9.45;;
48993;SDS011;34804;49.214;12.276;2023-12-20T03:18:25;16.40;;;9.10;;
48993;SDS011;34804;49.214;12.276;2023-12-20T03:20:54;14.77;;;8.63;;
48993;SDS011;34804;49.214;12.276;2023-12-20T03:23:21;15.30;;;8.75;;
48993;SDS011;34804;49.214;12.276;2023-12-20T03:25:47;13.02;;;8.35;;
48993;SDS011;34804;49.214;12.276;2023-12-20T03:28:15;13.15;;;7.85;;
48993;SDS011;34804;49.214;12.276;2023-12-20T03:30:42;15.20;;;7.97;;
48993;SDS011;34804;49.214;12.276;2023-12-20T03:33:09;14.65;;;7.95;;
48993;SDS011;34804;49.214;12.276;2023-12-20T03:35:36;13.48;;;8.07;;
48993;SDS011;34804;49.214;12.276;2023-12-20T03:38:03;13.20;;;7.35;;
48993;SDS011;34804;49.214;12.276;2023-12-20T03:40:30;12.43;;;7.45;;
48993;SDS011;34804;49.214;12.276;2023-12-20T03:42:57;14.75;;;8.27;;
48993;SDS011;34804;49.214;12.276;2023-12-20T03:45:24;11.90;;;7.05;;
48993;SDS011;34804;49.214;12.276;2023-12-20T03:47:50;11.93;;;7.70;;
48993;SDS011;34804;49.214;12.276;2023-12-20T03:50:24;12.05;;;7.60;;
48993;SDS011;34804;49.214;12.276;2023-12-20T03:52:52;12.93;;;7.55;;
48993;SDS011;34804;49.214;12.276;2023-12-20T03:55:19;13.23;;;7.97;;
48993;SDS011;34804;49.214;12.276;2023-12-20T03:57:46;14.00;;;8.00;;
48993;SDS011;34804;49.214;12.276;2023-12-20T04:00:13;13.50;;;8.13;;
48993;SDS011;34804;49.214;12.276;2023-12-20T04:02:41;11.55;;;7.55;;
48993;SDS011;34804;49.214;12.276;2023-12-20T04:05:08;12.77;;;8.13;;
48993;SDS011;34804;49.214;12.276;2023-12-20T04:07:36;15.18;;;8.82;;
48993;SDS011;34804;49.214;12.276;2023-12-20T04:10:03;13.80;;;7.70;;
48993;SDS011;34804;49.214;12.276;2023-12-20T04:12:31;13.68;;;8.15;;
48993;SDS011;34804;49.214;12.276;2023-12-20T04:14:59;11.60;;;7.68;;
48993;SDS011;34804;49.214;12.276;2023-12-20T04:17:25;14.02;;;7.53;;
48993;SDS011;34804;49.214;12.276;2023-12-20T04:19:52;13.30;;;8.18;;
48993;SDS011;34804;49.214;12.276;2023-12-20T04:22:19;13.93;;;8.25;;
48993;SDS011;34804;49.214;12.276;2023-12-20T04:24:46;13.52;;;8.02;;
48993;SDS011;34804;49.214;12.276;2023-12-20T04:27:13;10.80;;;6.72;;
48993;SDS011;34804;49.214;12.276;2023-12-20T04:29:40;11.85;;;7.63;;
48993;SDS011;34804;49.214;12.276;2023-12-20T04:32:07;12.05;;;7.55;;
48993;SDS011;34804;49.214;12.276;2023-12-20T04:34:34;13.40;;;7.15;;
48993;SDS011;34804;49.214;12.276;2023-12-20T04:37:00;10.48;;;6.43;;
48993;SDS011;34804;49.214;12.276;2023-12-20T04:39:28;12.80;;;6.65;;
48993;SDS011;34804;49.214;12.276;2023-12-20T04:41:55;12.63;;;6.75;;
48993;SDS011;34804;49.214;12.276;2023-12-20T04:44:22;9.48;;;5.78;;
48993;SDS011;34804;49.214;12.276;2023-12-20T04:46:49;10.80;;;6.40;;
48993;SDS011;34804;49.214;12.276;2023-12-20T04:49:16;12.52;;;6.43;;
48993;SDS011;34804;49.214;12.276;2023-12-20T04:51:43;9.60;;;5.60;;
48993;SDS011;34804;49.214;12.276;2023-12-20T04:54:10;11.05;;;5.47;;
48993;SDS011;34804;49.214;12.276;2023-12-20T04:56:37;9.05;;;5.47;;
48993;SDS011;34804;49.214;12.276;2023-12-20T04:59:04;9.32;;;4.88;;
48993;SDS011;34804;49.214;12.276;2023-12-20T05:01:31;8.93;;;4.80;;
48993;SDS011;34804;49.214;12.276;2023-12-20T05:03:58;8.10;;;4.05;;
48993;SDS011;34804;49.214;12.276;2023-12-20T05:06:24;8.38;;;4.53;;
48993;SDS011;34804;49.214;12.276;2023-12-20T05:08:51;7.53;;;4.15;;
48993;SDS011;34804;49.214;12.276;2023-12-20T05:11:18;8.23;;;4.28;;
48993;SDS011;34804;49.214;12.276;2023-12-20T05:13:45;8.88;;;4.53;;
48993;SDS011;34804;49.214;12.276;2023-12-20T05:16:16;8.50;;;4.65;;
48993;SDS011;34804;49.214;12.276;2023-12-20T05:18:47;6.65;;;3.90;;
48993;SDS011;34804;49.214;12.276;2023-12-20T05:21:14;7.50;;;3.88;;
48993;SDS011;34804;49.214;12.276;2023-12-20T05:23:41;8.05;;;4.20;;
48993;SDS011;34804;49.214;12.276;2023-12-20T05:26:08;7.15;;;3.67;;
48993;SDS011;34804;49.214;12.276;2023-12-20T05:28:35;7.00;;;3.45;;
48993;SDS011;34804;49.214;12.276;2023-12-20T05:31:02;7.22;;;3.67;;
48993;SDS011;34804;49.214;12.276;2023-12-20T05:33:29;7.72;;;3.60;;
48993;SDS011;34804;49.214;12.276;2023-12-20T05:35:56;7.45;;;3.22;;
48993;SDS011;34804;49.214;12.276;2023-12-20T05:38:23;7.55;;;3.75;;
48993;SDS011;34804;49.214;12.276;2023-12-20T05:40:50;7.18;;;3.75;;
48993;SDS011;34804;49.214;12.276;2023-12-20T05:43:16;5.60;;;3.30;;
48993;SDS011;34804;49.214;12.276;2023-12-20T05:45:43;7.13;;;3.13;;
48993;SDS011;34804;49.214;12.276;2023-12-20T05:48:10;5.20;;;2.83;;
48993;SDS011;34804;49.214;12.276;2023-12-20T05:50:37;5.65;;;2.55;;
48993;SDS011;34804;49.214;12.276;2023-12-20T05:53:05;5.10;;;2.30;;
48993;SDS011;34804;49.214;12.276;2023-12-20T05:55:32;5.15;;;2.13;;
48993;SDS011;34804;49.214;12.276;2023-12-20T05:57:59;6.45;;;1.95;;
48993;SDS011;34804;49.214;12.276;2023-12-20T06:00:28;3.55;;;1.45;;
48993;SDS011;34804;49.214;12.276;2023-12-20T06:02:55;4.00;;;1.73;;
48993;SDS011;34804;49.214;12.276;2023-12-20T06:05:21;3.30;;;1.58;;
48993;SDS011;34804;49.214;12.276;2023-12-20T06:07:48;3.15;;;1.30;;
48993;SDS011;34804;49.214;12.276;2023-12-20T06:10:17;4.15;;;1.63;;
48993;SDS011;34804;49.214;12.276;2023-12-20T06:12:44;3.00;;;1.20;;
48993;SDS011;34804;49.214;12.276;2023-12-20T06:15:13;2.92;;;1.25;;
48993;SDS011;34804;49.214;12.276;2023-12-20T06:17:40;3.00;;;1.40;;
48993;SDS011;34804;49.214;12.276;2023-12-20T06:20:08;2.25;;;1.15;;
48993;SDS011;34804;49.214;12.276;2023-12-20T06:22:35;3.10;;;1.33;;
48993;SDS011;34804;49.214;12.276;2023-12-20T06:25:03;2.33;;;1.20;;
48993;SDS011;34804;49.214;12.276;2023-12-20T06:27:30;2.08;;;1.00;;
48993;SDS011;34804;49.214;12.276;2023-12-20T06:29:58;3.22;;;1.20;;
48993;SDS011;34804;49.214;12.276;2023-12-20T06:32:25;3.67;;;1.40;;
48993;SDS011;34804;49.214;12.276;2023-12-20T06:34:52;3.28;;;1.40;;
48993;SDS011;34804;49.214;12.276;2023-12-20T06:37:19;3.30;;;1.55;;
48993;SDS011;34804;49.214;12.276;2023-12-20T06:39:46;3.42;;;1.48;;
48993;SDS011;34804;49.214;12.276;2023-12-20T06:42:13;2.95;;;1.23;;
48993;SDS011;34804;49.214;12.276;2023-12-20T06:44:40;3.47;;;1.60;;
48993;SDS011;34804;49.214;12.276;2023-12-20T06:47:07;3.33;;;1.55;;
48993;SDS011;34804;49.214;12.276;2023-12-20T06:49:34;3.22;;;1.40;;
48993;SDS011;34804;49.214;12.276;2023-12-20T06:52:01;3.70;;;1.58;;
48993;SDS011;34804;49.214;12.276;2023-12-20T06:54:28;3.90;;;1.58;;
48993;SDS011;34804;49.214;12.276;2023-12-20T06:56:55;3.20;;;1.50;;
48993;SDS011;34804;49.214;12.276;2023-12-20T06:59:22;3.47;;;1.60;;
48993;SDS011;34804;49.214;12.276;2023-12-20T07:01:49;3.97;;;1.40;;
48993;SDS011;34804;49.214;12.276;2023-12-20T07:04:16;3.10;;;1.50;;
48993;SDS011;34804;49.214;12.276;2023-12-20T07:06:48;2.70;;;1.42;;
48993;SDS011;34804;49.214;12.276;2023-12-20T07:09:18;3.78;;;1.40;;
48993;SDS011;34804;49.214;12.276;2023-12-20T07:11:45;3.10;;;1.40;;
48993;SDS011;34804;49.214;12.276;2023-12-20T07:14:12;2.95;;;1.30;;
48993;SDS011;34804;49.214;12.276;2023-12-20T07:16:39;3.67;;;1.23;;
48993;SDS011;34804;49.214;12.276;2023-12-20T07:19:06;2.28;;;1.20;;
48993;SDS011;34804;49.214;12.276;2023-12-20T07:21:33;3.00;;;1.30;;
48993;SDS011;34804;49.214;12.276;2023-12-20T07:24:00;2.78;;;1.15;;
48993;SDS011;34804;49.214;12.276;2023-12-20T07:26:27;2.35;;;1.17;;
48993;SDS011;34804;49.214;12.276;2023-12-20T07:28:54;3.63;;;1.42;;
48993;SDS011;34804;49.214;12.276;2023-12-20T07:31:21;2.55;;;1.13;;
48993;SDS011;34804;49.214;12.276;2023-12-20T07:33:50;4.07;;;1.38;;
48993;SDS011;34804;49.214;12.276;2023-12-20T07:36:17;3.38;;;1.50;;
48993;SDS011;34804;49.214;12.276;2023-12-20T07:38:45;3.65;;;1.30;;
48993;SDS011;34804;49.214;12.276;2023-12-20T07:41:12;5.90;;;1.50;;
48993;SDS011;34804;49.214;12.276;2023-12-20T07:43:39;3.13;;;1.38;;
48993;SDS011;34804;49.214;12.276;2023-12-20T07:46:06;2.17;;;0.95;;
48993;SDS011;34804;49.214;12.276;2023-12-20T07:48:35;2.45;;;1.10;;
48993;SDS011;34804;49.214;12.276;2023-12-20T07:51:03;3.15;;;1.20;;
48993;SDS011;34804;49.214;12.276;2023-12-20T07:53:32;2.25;;;1.08;;
48993;SDS011;34804;49.214;12.276;2023-12-20T07:55:59;2.05;;;1.10;;
48993;SDS011;34804;49.214;12.276;2023-12-20T07:58:26;2.65;;;1.00;;
48993;SDS011;34804;49.214;12.276;2023-12-20T08:01:11;1.95;;;0.90;;
48993;SDS011;34804;49.214;12.276;2023-12-20T08:03:38;2.95;;;1.35;;
48993;SDS011;34804;49.214;12.276;2023-12-20T08:06:05;2.45;;;1.10;;
48993;SDS011;34804;49.214;12.276;2023-12-20T08:08:32;2.15;;;1.20;;
48993;SDS011;34804;49.214;12.276;2023-12-20T08:10:59;2.35;;;1.10;;
48993;SDS011;34804;49.214;12.276;2023-12-20T08:13:26;3.20;;;1.30;;
48993;SDS011;34804;49.214;12.276;2023-12-20T08:15:53;2.30;;;1.20;;
48993;SDS011;34804;49.214;12.276;2023-12-20T08:18:22;2.40;;;1.15;;
48993;SDS011;34804;49.214;12.276;2023-12-20T08:20:49;3.78;;;1.38;;
48993;SDS011;34804;49.214;12.276;2023-12-20T08:23:19;4.63;;;1.92;;
48993;SDS011;34804;49.214;12.276;2023-12-20T08:25:50;2.88;;;1.23;;
48993;SDS011;34804;49.214;12.276;2023-12-20T08:28:17;2.53;;;1.17;;
48993;SDS011;34804;49.214;12.276;2023-12-20T08:30:44;2.30;;;1.20;;
48993;SDS011;34804;49.214;12.276;2023-12-20T08:33:11;3.55;;;1.48;;
48993;SDS011;34804;49.214;12.276;2023-12-20T08:35:39;3.22;;;1.50;;
48993;SDS011;34804;49.214;12.276;2023-12-20T08:38:06;2.17;;;1.20;;
48993;SDS011;34804;49.214;12.276;2023-12-20T08:40:33;3.42;;;1.40;;
48993;SDS011;34804;49.214;12.276;2023-12-20T08:43:00;3.45;;;1.35;;
48993;SDS011;34804;49.214;12.276;2023-12-20T08:45:28;2.90;;;1.42;;
48993;SDS011;34804;49.214;12.276;2023-12-20T08:47:55;2.42;;;1.20;;
48993;SDS011;34804;49.214;12.276;2023-12-20T08:50:26;3.00;;;1.42;;
48993;SDS011;34804;49.214;12.276;2023-12-20T08:52:53;2.33;;;1.15;;
48993;SDS011;34804;49.214;12.276;2023-12-20T08:55:19;3.25;;;1.30;;
48993;SDS011;34804;49.214;12.276;2023-12-20T08:57:46;3.65;;;1.30;;
48993;SDS011;34804;49.214;12.276;2023-12-20T09:00:14;2.72;;;1.40;;
48993;SDS011;34804;49.214;12.276;2023-12-20T09:02:41;3.03;;;1.65;;
48993;SDS011;34804;49.214;12.276;2023-12-20T09:05:08;3.08;;;1.40;;
48993;SDS011;34804;49.214;12.276;2023-12-20T09:07:35;3.30;;;1.42;;
48993;SDS011;34804;49.214;12.276;2023-12-20T09:10:02;3.42;;;1.45;;
48993;SDS011;34804;49.214;12.276;2023-12-20T09:12:30;4.05;;;1.50;;
48993;SDS011;34804;49.214;12.276;2023-12-20T09:14:57;3.40;;;1.63;;
48993;SDS011;34804;49.214;12.276;2023-12-20T09:17:24;3.63;;;2.00;;
48993;SDS011;34804;49.214;12.276;2023-12-20T09:19:52;3.45;;;1.83;;
48993;SDS011;34804;49.214;12.276;2023-12-20T09:22:20;4.75;;;2.30;;
48993;SDS011;34804;49.214;12.276;2023-12-20T09:24:47;4.13;;;2.10;;
48993;SDS011;34804;49.214;12.276;2023-12-20T09:27:14;5.95;;;2.50;;
48993;SDS011;34804;49.214;12.276;2023-12-20T09:29:41;5.47;;;2.47;;
48993;SDS011;34804;49.214;12.276;2023-12-20T09:32:08;4.82;;;2.30;;
48993;SDS011;34804;49.214;12.276;2023-12-20T09:34:35;4.32;;;2.30;;
48993;SDS011;34804;49.214;12.276;2023-12-20T09:37:03;5.47;;;2.33;;
48993;SDS011;34804;49.214;12.276;2023-12-20T09:39:31;4.10;;;2.38;;
48993;SDS011;34804;49.214;12.276;2023-12-20T09:42:02;4.05;;;2.10;;
48993;SDS011;34804;49.214;12.276;2023-12-20T09:44:31;4.85;;;2.10;;
48993;SDS011;34804;49.214;12.276;2023-12-20T09:46:59;3.83;;;2.13;;
48993;SDS011;34804;49.214;12.276;2023-12-20T09:49:29;3.60;;;1.77;;
48993;SDS011;34804;49.214;12.276;2023-12-20T09:51:57;4.07;;;1.80;;
48993;SDS011;34804;49.214;12.276;2023-12-20T09:54:23;3.80;;;1.70;;
48993;SDS011;34804;49.214;12.276;2023-12-20T09:56:51;3.72;;;1.48;;
48993;SDS011;34804;49.214;12.276;2023-12-20T09:59:18;4.03;;;1.77;;
48993;SDS011;34804;49.214;12.276;2023-12-20T10:01:45;3.95;;;1.73;;
48993;SDS011;34804;49.214;12.276;2023-12-20T10:04:12;3.67;;;1.80;;
48993;SDS011;34804;49.214;12.276;2023-12-20T10:06:55;3.63;;;1.90;;
48993;SDS011;34804;49.214;12.276;2023-12-20T10:09:23;3.80;;;1.90;;
48993;SDS011;34804;49.214;12.276;2023-12-20T10:11:53;3.60;;;2.00;;
48993;SDS011;34804;49.214;12.276;2023-12-20T10:14:21;3.42;;;1.83;;
48993;SDS011;34804;49.214;12.276;2023-12-20T10:16:49;4.10;;;1.90;;
48993;SDS011;34804;49.214;12.276;2023-12-20T10:19:17;4.25;;;2.03;;
48993;SDS011;34804;49.214;12.276;2023-12-20T10:21:44;3.65;;;1.80;;
48993;SDS011;34804;49.214;12.276;2023-12-20T10:24:16;3.42;;;1.80;;
48993;SDS011;34804;49.214;12.276;2023-12-20T10:26:44;4.03;;;1.98;;
48993;SDS011;34804;49.214;12.276;2023-12-20T10:29:11;5.03;;;2.38;;
48993;SDS011;34804;49.214;12.276;2023-12-20T10:31:37;5.57;;;1.80;;
48993;SDS011;34804;49.214;12.276;2023-12-20T10:34:09;3.40;;;1.80;;
48993;SDS011;34804;49.214;12.276;2023-12-20T10:36:36;3.97;;;1.90;;
48993;SDS011;34804;49.214;12.276;2023-12-20T10:39:03;3.92;;;1.95;;
48993;SDS011;34804;49.214;12.276;2023-12-20T10:41:32;3.95;;;1.90;;
48993;SDS011;34804;49.214;12.276;2023-12-20T10:44:00;3.70;;;1.88;;
48993;SDS011;34804;49.214;12.276;2023-12-20T10:46:29;4.38;;;2.00;;
48993;SDS011;34804;49.214;12.276;2023-12-20T10:48:57;3.30;;;1.70;;
48993;SDS011;34804;49.214;12.276;2023-12-20T10:51:24;3.95;;;1.60;;
48993;SDS011;34804;49.214;12.276;2023-12-20T10:53:56;4.07;;;1.90;;
48993;SDS011;34804;49.214;12.276;2023-12-20T10:56:23;2.90;;;1.40;;
48993;SDS011;34804;49.214;12.276;2023-12-20T10:58:51;4.15;;;2.30;;
48993;SDS011;34804;49.214;12.276;2023-12-20T11:01:18;3.80;;;1.60;;
48993;SDS011;34804;49.214;12.276;2023-12-20T11:03:55;3.42;;;1.70;;
48993;SDS011;34804;49.214;12.276;2023-12-20T11:06:40;3.70;;;1.60;;
48993;SDS011;34804;49.214;12.276;2023-12-20T11:09:25;3.13;;;1.50;;
48993;SDS011;34804;49.214;12.276;2023-12-20T11:14:33;3.05;;;1.40;;
48993;SDS011;34804;49.214;12.276;2023-12-20T11:17:10;3.75;;;1.63;;
48993;SDS011;34804;49.214;12.276;2023-12-20T11:22:25;4.65;;;1.50;;
48993;SDS011;34804;49.214;12.276;2023-12-20T11:24:54;3.17;;;1.50;;
48993;SDS011;34804;49.214;12.276;2023-12-20T11:27:25;2.58;;;1.30;;
48993;SDS011;34804;49.214;12.276;2023-12-20T11:29:52;2.72;;;1.13;;
48993;SDS011;34804;49.214;12.276;2023-12-20T11:34:51;3.03;;;1.30;;
48993;SDS011;34804;49.214;12.276;2023-12-20T11:37:19;5.35;;;1.55;;
48993;SDS011;34804;49.214;12.276;2023-12-20T11:39:56;4.80;;;1.40;;
48993;SDS011;34804;49.214;12.276;2023-12-20T11:42:27;4.63;;;1.27;;
48993;SDS011;34804;49.214;12.276;2023-12-20T11:44:54;5.75;;;1.73;;
48993;SDS011;34804;49.214;12.276;2023-12-20T11:47:22;6.40;;;1.45;;
48993;SDS011;34804;49.214;12.276;2023-12-20T11:49:49;5.45;;;1.52;;
48993;SDS011;34804;49.214;12.276;2023-12-20T11:52:17;6.47;;;1.73;;
48993;SDS011;34804;49.214;12.276;2023-12-20T11:54:44;4.45;;;1.55;;
48993;SDS011;34804;49.214;12.276;2023-12-20T11:57:11;4.90;;;1.42;;
48993;SDS011;34804;49.214;12.276;2023-12-20T11:59:38;4.18;;;1.55;;
48993;SDS011;34804;49.214;12.276;2023-12-20T12:02:05;4.25;;;1.30;;
48993;SDS011;34804;49.214;12.276;2023-12-20T12:04:32;6.07;;;1.52;;
48993;SDS011;34804;49.214;12.276;2023-12-20T12:06:59;4.57;;;1.58;;
48993;SDS011;34804;49.214;12.276;2023-12-20T12:09:26;4.40;;;1.38;;
48993;SDS011;34804;49.214;12.276;2023-12-20T12:11:53;6.32;;;1.48;;
48993;SDS011;34804;49.214;12.276;2023-12-20T12:14:20;4.65;;;1.35;;
48993;SDS011;34804;49.214;12.276;2023-12-20T12:16:47;2.97;;;1.00;;
48993;SDS011;34804;49.214;12.276;2023-12-20T12:19:22;4.97;;;1.70;;
48993;SDS011;34804;49.214;12.276;2023-12-20T12:21:50;4.85;;;1.30;;
48993;SDS011;34804;49.214;12.276;2023-12-20T12:24:20;6.20;;;1.60;;
48993;SDS011;34804;49.214;12.276;2023-12-20T12:26:50;3.60;;;1.35;;
48993;SDS011;34804;49.214;12.276;2023-12-20T12:29:18;5.18;;;1.60;;
48993;SDS011;34804;49.214;12.276;2023-12-20T12:31:44;5.65;;;1.65;;
48993;SDS011;34804;49.214;12.276;2023-12-20T12:34:12;4.70;;;1.25;;
48993;SDS011;34804;49.214;12.276;2023-12-20T12:36:39;5.65;;;1.50;;
48993;SDS011;34804;49.214;12.276;2023-12-20T12:39:06;6.05;;;1.65;;
48993;SDS011;34804;49.214;12.276;2023-12-20T12:41:33;3.03;;;1.20;;
48993;SDS011;34804;49.214;12.276;2023-12-20T12:44:00;4.78;;;1.60;;
48993;SDS011;34804;49.214;12.276;2023-12-20T12:46:40;7.65;;;1.77;;
48993;SDS011;34804;49.214;12.276;2023-12-20T12:49:07;6.45;;;1.67;;
48993;SDS011;34804;49.214;12.276;2023-12-20T12:51:34;4.75;;;1.70;;
48993;SDS011;34804;49.214;12.276;2023-12-20T12:54:01;6.47;;;1.50;;
48993;SDS011;34804;49.214;12.276;2023-12-20T12:56:28;5.03;;;1.40;;
48993;SDS011;34804;49.214;12.276;2023-12-20T12:58:55;4.30;;;1.35;;
48993;SDS011;34804;49.214;12.276;2023-12-20T13:01:22;6.15;;;1.42;;
48993;SDS011;34804;49.214;12.276;2023-12-20T13:03:49;4.72;;;1.10;;
48993;SDS011;34804;49.214;12.276;2023-12-20T13:06:16;4.80;;;1.50;;
48993;SDS011;34804;49.214;12.276;2023-12-20T13:08:43;4.65;;;1.40;;
48993;SDS011;34804;49.214;12.276;2023-12-20T13:11:10;5.60;;;1.58;;
48993;SDS011;34804;49.214;12.276;2023-12-20T13:13:37;5.38;;;1.40;;
48993;SDS011;34804;49.214;12.276;2023-12-20T13:16:04;9.75;;;1.70;;
48993;SDS011;34804;49.214;12.276;2023-12-20T13:18:31;4.80;;;1.40;;
48993;SDS011;34804;49.214;12.276;2023-12-20T13:20:58;4.45;;;1.40;;
48993;SDS011;34804;49.214;12.276;2023-12-20T13:23:25;6.25;;;1.38;;
48993;SDS011;34804;49.214;12.276;2023-12-20T13:25:52;4.38;;;1.23;;
48993;SDS011;34804;49.214;12.276;2023-12-20T13:28:18;5.07;;;1.50;;
48993;SDS011;34804;49.214;12.276;2023-12-20T13:30:45;4.82;;;1.70;;
48993;SDS011;34804;49.214;12.276;2023-12-20T13:33:12;9.40;;;1.35;;
48993;SDS011;34804;49.214;12.276;2023-12-20T13:35:39;4.47;;;1.23;;
48993;SDS011;34804;49.214;12.276;2023-12-20T13:38:06;3.47;;;1.42;;
48993;SDS011;34804;49.214;12.276;2023-12-20T13:40:34;5.97;;;1.25;;
48993;SDS011;34804;49.214;12.276;2023-12-20T13:43:00;5.70;;;1.42;;
48993;SDS011;34804;49.214;12.276;2023-12-20T13:45:29;7.15;;;1.50;;
48993;SDS011;34804;49.214;12.276;2023-12-20T13:47:56;8.23;;;1.67;;
48993;SDS011;34804;49.214;12.276;2023-12-20T13:50:23;3.35;;;1.50;;
48993;SDS011;34804;49.214;12.276;2023-12-20T13:52:50;5.03;;;1.27;;
48993;SDS011;34804;49.214;12.276;2023-12-20T13:55:17;4.18;;;1.50;;
48993;SDS011;34804;49.214;12.276;2023-12-20T13:57:44;8.55;;;1.63;;
48993;SDS011;34804;49.214;12.276;2023-12-20T14:00:21;6.68;;;1.50;;
48993;SDS011;34804;49.214;12.276;2023-12-20T14:02:48;3.45;;;1.20;;
48993;SDS011;34804;49.214;12.276;2023-12-20T14:05:16;5.15;;;1.58;;
48993;SDS011;34804;49.214;12.276;2023-12-20T14:07:44;8.10;;;1.73;;
48993;SDS011;34804;49.214;12.276;2023-12-20T14:10:12;5.60;;;1.60;;
48993;SDS011;34804;49.214;12.276;2023-12-20T14:12:40;5.18;;;1.38;;
48993;SDS011;34804;49.214;12.276;2023-12-20T14:15:07;3.85;;;1.30;;
48993;SDS011;34804;49.214;12.276;2023-12-20T14:17:37;6.28;;;1.67;;
48993;SDS011;34804;49.214;12.276;2023-12-20T14:20:05;4.47;;;1.35;;
48993;SDS011;34804;49.214;12.276;2023-12-20T14:22:33;4.32;;;1.30;;
48993;SDS011;34804;49.214;12.276;2023-12-20T14:25:01;6.05;;;1.50;;
48993;SDS011;34804;49.214;12.276;2023-12-20T14:27:30;4.40;;;1.25;;
48993;SDS011;34804;49.214;12.276;2023-12-20T14:29:57;6.32;;;1.30;;
48993;SDS011;34804;49.214;12.276;2023-12-20T14:32:24;5.35;;;1.48;;
48993;SDS011;34804;49.214;12.276;2023-12-20T14:34:53;3.83;;;1.15;;
48993;SDS011;34804;49.214;12.276;2023-12-20T14:37:21;6.07;;;1.48;;
48993;SDS011;34804;49.214;12.276;2023-12-20T14:39:48;4.57;;;1.50;;
48993;SDS011;34804;49.214;12.276;2023-12-20T14:42:16;5.82;;;1.40;;